createdAt,value
2023-01-12T00:02:24.266Z,85.48
2023-01-12T00:04:53.073Z,85.58
2023-01-12T00:07:22.103Z,85.58
2023-01-12T00:09:50.774Z,85.53
2023-01-12T00:12:19.497Z,86.18
2023-01-12T00:14:48.409Z,86.28
2023-01-12T00:17:20.075Z,86.41
2023-01-12T00:19:48.954Z,86.58
2023-01-12T00:22:19.684Z,86.44
2023-01-12T00:24:50.056Z,86.73
2023-01-12T00:27:21.411Z,86.64
2023-01-12T00:29:51.497Z,86.59
2023-01-12T00:32:22.072Z,86.92
2023-01-12T00:34:51.206Z,87.00
2023-01-12T00:37:21.091Z,87.46
2023-01-12T00:40:01.511Z,87.27
2023-01-12T00:42:40.948Z,87.67
2023-01-12T00:45:28.267Z,87.93
2023-01-12T00:47:58.858Z,87.46
2023-01-12T00:50:27.872Z,88.17
2023-01-12T00:52:56.636Z,87.94
2023-01-12T00:55:25.421Z,87.85
2023-01-12T00:57:54.154Z,87.87
2023-01-12T01:00:23.153Z,87.84
2023-01-12T01:02:51.964Z,88.14
2023-01-12T01:05:22.248Z,88.37
2023-01-12T01:07:51.206Z,88.47
2023-01-12T01:10:20.004Z,87.92
2023-01-12T01:12:49.248Z,88.26
2023-01-12T01:15:19.111Z,88.09
2023-01-12T01:17:47.935Z,88.30
2023-01-12T01:20:16.824Z,88.45
2023-01-12T01:22:47.088Z,88.89
2023-01-12T01:25:16.321Z,88.75
2023-01-12T01:27:45.061Z,88.75
2023-01-12T01:30:14.030Z,88.73
2023-01-12T01:32:42.719Z,89.51
2023-01-12T01:35:11.715Z,89.34
2023-01-12T01:37:40.403Z,89.32
2023-01-12T01:40:12.017Z,89.13
2023-01-12T01:42:42.089Z,89.15
2023-01-12T01:45:13.319Z,88.97
2023-01-12T01:47:46.520Z,89.74
2023-01-12T01:50:19.862Z,89.78
2023-01-12T01:52:53.734Z,89.65
2023-01-12T01:55:26.804Z,89.74
2023-01-12T01:58:00.373Z,90.04
2023-01-12T02:00:29.663Z,90.08
2023-01-12T02:03:01.076Z,90.28
2023-01-12T02:05:30.379Z,90.32
2023-01-12T02:08:07.926Z,89.85
2023-01-12T02:10:39.389Z,89.95
2023-01-12T02:13:18.329Z,89.96
2023-01-12T02:16:04.127Z,89.95
2023-01-12T02:18:38.522Z,90.68
2023-01-12T02:21:22.088Z,90.19
2023-01-12T02:24:12.376Z,90.14
2023-01-12T02:27:14.607Z,90.11
2023-01-12T02:30:08.019Z,90.47
2023-01-12T02:32:46.739Z,90.35
2023-01-12T02:35:26.432Z,90.72
2023-01-12T02:38:02.277Z,90.57
2023-01-12T02:40:38.567Z,90.11
2023-01-12T02:43:13.837Z,90.74
2023-01-12T02:45:51.354Z,90.27
2023-01-12T02:48:27.109Z,90.54
2023-01-12T02:51:03.605Z,90.19
2023-01-12T02:53:43.461Z,90.38
2023-01-12T02:56:15.863Z,90.33
2023-01-12T02:58:49.969Z,90.70
2023-01-12T03:01:20.849Z,90.50
2023-01-12T03:03:52.709Z,90.51
2023-01-12T03:06:21.717Z,90.26
2023-01-12T03:08:52.435Z,90.85
2023-01-12T03:11:24.068Z,90.77
2023-01-12T03:13:56.892Z,90.71
2023-01-12T03:16:30.459Z,90.70
2023-01-12T03:19:03.545Z,90.92
2023-01-12T03:21:39.111Z,91.00
2023-01-12T03:24:12.734Z,90.77
2023-01-12T03:26:45.875Z,90.71
2023-01-12T03:29:20.888Z,90.67
2023-01-12T03:31:49.887Z,90.86
2023-01-12T03:34:20.226Z,91.14
2023-01-12T03:36:59.353Z,90.95
2023-01-12T03:39:38.576Z,91.19
2023-01-12T03:42:14.180Z,91.21
2023-01-12T03:44:53.397Z,91.02
2023-01-12T03:47:25.994Z,91.43
2023-01-12T03:50:00.527Z,91.47
2023-01-12T03:52:31.758Z,91.61
2023-01-12T03:55:03.132Z,91.70
2023-01-12T03:57:33.103Z,91.39
2023-01-12T04:00:04.318Z,91.66
2023-01-12T04:02:41.528Z,91.54
2023-01-12T04:05:14.869Z,91.86
2023-01-12T04:07:43.604Z,91.67
2023-01-12T04:10:12.921Z,91.80
2023-01-12T04:12:40.595Z,91.97
2023-01-12T04:15:10.145Z,91.39
2023-01-12T04:17:38.817Z,91.64
2023-01-12T04:20:09.829Z,91.49
2023-01-12T04:22:44.865Z,91.99
2023-01-12T04:25:15.845Z,91.74
2023-01-12T04:27:48.760Z,91.71
2023-01-12T04:30:20.555Z,91.46
2023-01-12T04:32:49.412Z,91.85
2023-01-12T04:35:18.754Z,92.07
2023-01-12T04:37:49.227Z,92.03
2023-01-12T04:40:18.637Z,92.07
2023-01-12T04:43:00.903Z,91.87
2023-01-12T04:45:30.373Z,91.62
2023-01-12T04:48:03.294Z,92.01
2023-01-12T04:50:32.294Z,92.39
2023-01-12T04:53:03.996Z,92.11
2023-01-12T04:55:32.921Z,92.34
2023-01-12T04:58:01.995Z,92.43
2023-01-12T05:00:30.850Z,92.42
2023-01-12T05:03:02.441Z,92.08
2023-01-12T05:05:33.529Z,92.33
2023-01-12T05:08:15.816Z,92.26
2023-01-12T05:10:44.620Z,92.50
2023-01-12T05:13:13.315Z,92.76
2023-01-12T05:15:41.979Z,92.59
2023-01-12T05:18:10.848Z,92.55
2023-01-12T05:20:39.676Z,92.32
2023-01-12T05:23:09.778Z,92.69
2023-01-12T05:25:38.600Z,92.24
2023-01-12T05:28:07.365Z,92.52
2023-01-12T05:30:36.242Z,92.51
2023-01-12T05:33:05.871Z,92.83
2023-01-12T05:35:34.365Z,92.72
2023-01-12T05:38:03.145Z,93.00
2023-01-12T05:40:33.443Z,92.64
2023-01-12T05:43:11.974Z,92.65
2023-01-12T05:45:40.888Z,92.55
2023-01-12T05:48:09.781Z,92.47
2023-01-12T05:50:39.145Z,92.90
2023-01-12T05:53:10.693Z,92.46
2023-01-12T05:55:41.181Z,92.49
2023-01-12T05:58:10.035Z,92.45
2023-01-12T06:00:38.802Z,92.91
2023-01-12T06:03:07.671Z,92.77
2023-01-12T06:05:36.277Z,92.76
2023-01-12T06:08:05.185Z,92.60
2023-01-12T06:10:34.653Z,92.58
2023-01-12T06:13:14.594Z,92.85
2023-01-12T06:15:43.468Z,92.84
2023-01-12T06:18:12.364Z,92.56
2023-01-12T06:20:41.310Z,92.82
2023-01-12T06:23:09.921Z,92.54
2023-01-12T06:25:38.827Z,92.52
2023-01-12T06:28:09.031Z,92.64
2023-01-12T06:30:37.820Z,92.87
2023-01-12T06:33:06.531Z,92.61
2023-01-12T06:35:35.379Z,92.79
2023-01-12T06:38:04.251Z,92.50
2023-01-12T06:40:33.650Z,92.46
2023-01-12T06:43:02.418Z,92.34
2023-01-12T06:45:32.629Z,92.94
2023-01-12T06:48:01.552Z,92.96
2023-01-12T06:50:30.365Z,92.52
2023-01-12T06:53:00.669Z,92.80
2023-01-12T06:55:29.825Z,92.49
2023-01-12T06:57:58.977Z,92.48
2023-01-12T07:00:27.769Z,92.49
2023-01-12T07:02:57.839Z,92.57
2023-01-12T07:05:26.805Z,92.97
2023-01-12T07:08:01.552Z,92.99
2023-01-12T07:10:32.815Z,92.30
2023-01-12T07:13:01.923Z,92.85
2023-01-12T07:15:30.705Z,92.96
2023-01-12T07:18:01.004Z,92.27
2023-01-12T07:20:29.824Z,92.74
2023-01-12T07:22:58.685Z,92.32
2023-01-12T07:25:27.923Z,92.47
2023-01-12T07:27:58.337Z,92.73
2023-01-12T07:30:28.469Z,92.74
2023-01-12T07:32:57.360Z,92.23
2023-01-12T07:35:27.464Z,92.42
2023-01-12T07:37:56.195Z,92.49
2023-01-12T07:40:25.158Z,92.85
2023-01-12T07:43:00.607Z,92.64
2023-01-12T07:45:30.135Z,92.55
2023-01-12T07:47:58.779Z,92.61
2023-01-12T07:50:30.469Z,92.33
2023-01-12T07:53:02.010Z,92.76
2023-01-12T07:55:31.162Z,92.23
2023-01-12T07:58:03.388Z,92.17
2023-01-12T08:00:32.679Z,92.53
2023-01-12T08:03:07.326Z,92.07
2023-01-12T08:05:39.044Z,92.14
2023-01-12T08:08:08.666Z,92.30
2023-01-12T08:10:37.510Z,91.99
2023-01-12T08:13:06.174Z,92.06
2023-01-12T08:15:40.558Z,91.88
2023-01-12T08:18:17.242Z,91.55
2023-01-12T08:20:49.158Z,91.98
2023-01-12T08:23:23.669Z,91.99
2023-01-12T08:25:58.740Z,91.95
2023-01-12T08:28:35.186Z,91.95
2023-01-12T08:31:04.449Z,91.78
2023-01-12T08:33:33.131Z,91.98
2023-01-12T08:36:05.249Z,91.90
2023-01-12T08:38:34.026Z,91.00
2023-01-12T08:41:12.458Z,92.02
2023-01-12T08:43:51.213Z,91.26
2023-01-12T08:46:20.122Z,91.59
2023-01-12T08:48:48.830Z,91.61
2023-01-12T08:51:19.062Z,91.58
2023-01-12T08:53:49.509Z,91.68
2023-01-12T08:56:18.464Z,91.14
2023-01-12T08:58:47.564Z,90.51
2023-01-12T09:01:17.512Z,90.26
2023-01-12T09:03:46.618Z,89.93
2023-01-12T09:06:17.554Z,89.91
2023-01-12T09:08:48.149Z,90.06
2023-01-12T09:11:17.099Z,89.51
2023-01-12T09:13:45.768Z,89.80
2023-01-12T09:16:17.613Z,88.82
2023-01-12T09:18:46.849Z,89.20
2023-01-12T09:21:17.329Z,88.76
2023-01-12T09:23:49.757Z,88.45
2023-01-12T09:26:21.041Z,88.46
2023-01-12T09:28:51.702Z,88.41
2023-01-12T09:31:22.561Z,88.29
2023-01-12T09:33:53.254Z,88.31
2023-01-12T09:36:24.804Z,88.74
2023-01-12T09:38:55.463Z,88.49
2023-01-12T09:41:37.530Z,88.65
2023-01-12T09:44:23.180Z,88.10
2023-01-12T09:47:01.818Z,87.85
2023-01-12T09:49:35.529Z,88.11
2023-01-12T09:52:12.979Z,88.48
2023-01-12T09:54:43.480Z,88.39
2023-01-12T09:57:30.628Z,87.90
2023-01-12T10:00:04.141Z,87.93
2023-01-12T10:02:45.723Z,87.85
2023-01-12T10:05:38.587Z,87.72
2023-01-12T10:08:17.304Z,87.36
2023-01-12T10:11:01.815Z,87.38
2023-01-12T10:13:51.055Z,87.24
2023-01-12T10:16:27.248Z,86.99
2023-01-12T10:19:02.773Z,87.32
2023-01-12T10:21:33.073Z,87.11
2023-01-12T10:24:02.004Z,86.87
2023-01-12T10:26:42.579Z,87.28
2023-01-12T10:29:13.519Z,86.98
2023-01-12T10:31:42.361Z,87.20
2023-01-12T10:34:13.262Z,87.13
2023-01-12T10:36:47.668Z,87.13
2023-01-12T10:39:35.428Z,87.02
2023-01-12T10:42:32.241Z,87.23
2023-01-12T10:45:15.481Z,87.50
2023-01-12T10:47:45.942Z,86.97
2023-01-12T10:50:24.853Z,87.55
2023-01-12T10:53:02.758Z,86.88
2023-01-12T10:55:35.196Z,87.51
2023-01-12T10:58:05.808Z,86.41
2023-01-12T11:00:34.715Z,86.84
2023-01-12T11:03:03.580Z,86.86
2023-01-12T11:05:37.834Z,86.79
2023-01-12T11:08:23.361Z,86.87
2023-01-12T11:10:52.713Z,85.86
2023-01-12T11:13:37.010Z,85.98
2023-01-12T11:16:18.624Z,86.53
2023-01-12T11:18:53.108Z,86.13
2023-01-12T11:21:27.308Z,86.35
2023-01-12T11:24:00.270Z,86.40
2023-01-12T11:26:34.125Z,86.36
2023-01-12T11:29:17.716Z,86.47
2023-01-12T11:31:49.135Z,86.36
2023-01-12T11:34:20.978Z,86.13
2023-01-12T11:36:55.198Z,86.08
2023-01-12T11:39:25.872Z,85.20
2023-01-12T11:42:06.946Z,86.07
2023-01-12T11:44:43.735Z,85.27
2023-01-12T11:47:15.114Z,85.26
2023-01-12T11:49:53.035Z,85.27
2023-01-12T11:52:22.045Z,84.12
2023-01-12T11:54:50.865Z,84.20
2023-01-12T11:57:37.525Z,83.49
2023-01-12T12:00:27.120Z,83.32
2023-01-12T12:03:01.541Z,82.80
2023-01-12T12:05:44.199Z,82.54
2023-01-12T12:08:24.810Z,81.56
2023-01-12T12:10:58.218Z,81.11
2023-01-12T12:13:33.496Z,81.39
2023-01-12T12:16:21.154Z,81.03
2023-01-12T12:19:10.779Z,81.53
2023-01-12T12:21:48.961Z,81.73
2023-01-12T12:24:39.468Z,80.86
2023-01-12T12:27:18.402Z,80.79
2023-01-12T12:30:04.493Z,80.08
2023-01-12T12:32:44.481Z,78.33
2023-01-12T12:35:41.652Z,76.60
2023-01-12T12:38:27.139Z,74.51
2023-01-12T12:41:23.706Z,72.89
2023-01-12T12:44:14.356Z,71.22
2023-01-12T12:46:55.681Z,70.28
2023-01-12T12:49:32.876Z,69.73
2023-01-12T12:52:02.908Z,69.68
2023-01-12T12:54:32.245Z,69.53
2023-01-12T12:57:00.986Z,69.47
2023-01-12T12:59:52.196Z,69.50
2023-01-12T13:02:34.241Z,69.94
2023-01-12T13:05:07.235Z,70.37
2023-01-12T13:07:42.402Z,71.14
2023-01-12T13:10:20.800Z,72.30
2023-01-12T13:12:59.272Z,72.17
2023-01-12T13:15:36.308Z,72.93
2023-01-12T13:18:07.389Z,73.92
2023-01-12T13:21:00.142Z,75.00
2023-01-12T13:23:44.411Z,74.73
2023-01-12T13:26:37.797Z,75.73
2023-01-12T13:29:27.002Z,76.49
2023-01-12T13:31:59.711Z,77.02
2023-01-12T13:34:42.038Z,76.76
2023-01-12T13:37:25.190Z,77.75
2023-01-12T13:40:01.597Z,77.36
2023-01-12T13:42:40.257Z,78.27
2023-01-12T13:45:17.274Z,79.04
2023-01-12T13:47:47.742Z,79.33
2023-01-12T13:50:20.518Z,79.59
2023-01-12T13:53:00.731Z,80.18
2023-01-12T13:55:31.500Z,80.55
2023-01-12T13:58:02.647Z,80.57
2023-01-12T14:00:34.504Z,80.51
2023-01-12T14:03:05.990Z,81.17
2023-01-12T14:05:47.820Z,81.54
2023-01-12T14:08:51.136Z,81.27
2023-01-12T14:11:49.121Z,82.02
2023-01-12T14:14:55.952Z,82.70
2023-01-12T14:17:39.152Z,82.62
2023-01-12T14:20:16.077Z,82.37
2023-01-12T14:22:46.152Z,82.44
2023-01-12T14:25:22.307Z,82.54
2023-01-12T14:27:53.147Z,83.38
2023-01-12T14:30:22.958Z,83.40
2023-01-12T14:32:52.584Z,83.59
2023-01-12T14:35:21.869Z,83.64
2023-01-12T14:37:53.388Z,84.01
2023-01-12T14:40:26.908Z,84.52
2023-01-12T14:43:06.373Z,84.32
2023-01-12T14:45:45.106Z,84.34
2023-01-12T14:48:25.990Z,84.32
2023-01-12T14:51:18.757Z,84.36
2023-01-12T14:53:49.658Z,84.87
2023-01-12T14:56:24.458Z,84.76
2023-01-12T14:58:54.728Z,84.95
2023-01-12T15:01:34.242Z,84.65
2023-01-12T15:04:03.278Z,85.17
2023-01-12T15:06:38.144Z,85.28
2023-01-12T15:09:11.100Z,85.05
2023-01-12T15:11:43.022Z,84.92
2023-01-12T15:14:25.231Z,84.88
2023-01-12T15:17:04.293Z,85.22
2023-01-12T15:19:42.907Z,85.46
2023-01-12T15:22:21.704Z,85.44
2023-01-12T15:25:00.553Z,85.42
2023-01-12T15:27:31.474Z,85.56
2023-01-12T15:30:00.307Z,85.51
2023-01-12T15:32:46.832Z,85.94
2023-01-12T15:35:21.718Z,86.10
2023-01-12T15:37:50.893Z,86.24
2023-01-12T15:40:20.258Z,86.32
2023-01-12T15:42:53.372Z,86.35
2023-01-12T15:45:35.665Z,86.63
2023-01-12T15:48:05.315Z,86.48
2023-01-12T15:50:35.057Z,86.51
2023-01-12T15:53:04.385Z,86.64
2023-01-12T15:55:36.179Z,86.69
2023-01-12T15:58:06.829Z,86.87
2023-01-12T16:00:35.943Z,86.85
2023-01-12T16:03:05.075Z,86.77
2023-01-12T16:05:33.952Z,86.70
2023-01-12T16:08:02.787Z,86.82
2023-01-12T16:10:31.513Z,87.04
2023-01-12T16:13:02.103Z,87.17
2023-01-12T16:15:34.322Z,87.20
2023-01-12T16:18:03.085Z,87.54
2023-01-12T16:20:31.766Z,87.88
2023-01-12T16:23:00.882Z,87.59
2023-01-12T16:25:29.629Z,88.17
2023-01-12T16:28:00.981Z,88.52
2023-01-12T16:30:29.854Z,88.46
2023-01-12T16:33:00.776Z,88.80
2023-01-12T16:35:30.225Z,88.88
2023-01-12T16:37:58.982Z,88.96
2023-01-12T16:40:27.807Z,88.65
2023-01-12T16:42:56.621Z,89.14
2023-01-12T16:45:25.411Z,89.46
2023-01-12T16:47:58.195Z,89.46
2023-01-12T16:50:28.423Z,89.42
2023-01-12T16:52:57.197Z,89.58
2023-01-12T16:55:26.390Z,89.87
2023-01-12T16:57:55.194Z,90.27
2023-01-12T17:00:24.366Z,90.00
2023-01-12T17:02:53.504Z,90.30
2023-01-12T17:05:22.528Z,90.18
2023-01-12T17:07:54.282Z,90.25
2023-01-12T17:10:24.282Z,90.13
2023-01-12T17:12:54.868Z,90.40
2023-01-12T17:15:30.853Z,90.23
2023-01-12T17:17:59.722Z,90.00
2023-01-12T17:20:29.985Z,90.84
2023-01-12T17:23:01.635Z,90.59
2023-01-12T17:25:30.357Z,90.78
2023-01-12T17:27:59.173Z,90.59
2023-01-12T17:30:27.811Z,90.56
2023-01-12T17:32:56.776Z,90.81
2023-01-12T17:35:25.452Z,91.04
2023-01-12T17:37:55.531Z,91.30
2023-01-12T17:40:27.730Z,91.25
2023-01-12T17:43:08.028Z,90.99
2023-01-12T17:45:42.876Z,91.11
2023-01-12T17:48:13.343Z,91.31
2023-01-12T17:50:42.795Z,91.51
2023-01-12T17:53:11.637Z,91.40
2023-01-12T17:55:48.263Z,91.30
2023-01-12T17:58:18.965Z,91.52
2023-01-12T18:00:47.765Z,91.66
2023-01-12T18:03:16.625Z,91.82
2023-01-12T18:05:49.976Z,91.69
2023-01-12T18:08:22.691Z,91.75
2023-01-12T18:10:53.056Z,91.58
2023-01-12T18:13:22.061Z,91.89
2023-01-12T18:15:50.773Z,92.20
2023-01-12T18:18:19.614Z,91.85
2023-01-12T18:20:48.773Z,91.99
2023-01-12T18:23:18.613Z,92.24
2023-01-12T18:25:47.351Z,92.07
2023-01-12T18:28:17.459Z,92.15
2023-01-12T18:30:46.150Z,92.14
2023-01-12T18:33:14.884Z,92.28
2023-01-12T18:35:43.680Z,91.86
2023-01-12T18:38:12.489Z,92.34
2023-01-12T18:40:41.368Z,92.22
2023-01-12T18:43:09.071Z,92.27
2023-01-12T18:45:39.305Z,92.25
2023-01-12T18:48:17.946Z,92.44
2023-01-12T18:50:56.573Z,92.26
2023-01-12T18:53:28.917Z,92.22
2023-01-12T18:55:58.373Z,92.40
2023-01-12T18:58:28.962Z,92.50
2023-01-12T19:01:00.504Z,92.45
2023-01-12T19:03:29.426Z,92.46
2023-01-12T19:06:10.319Z,92.16
2023-01-12T19:08:49.020Z,92.34
2023-01-12T19:11:17.941Z,92.40
2023-01-12T19:13:56.678Z,92.41
2023-01-12T19:16:36.924Z,92.55
2023-01-12T19:19:07.496Z,92.52
2023-01-12T19:21:46.385Z,92.70
2023-01-12T19:24:25.100Z,92.47
2023-01-12T19:27:03.704Z,92.38
2023-01-12T19:29:34.366Z,92.24
2023-01-12T19:32:04.578Z,92.32
2023-01-12T19:34:33.258Z,92.11
2023-01-12T19:37:01.954Z,92.70
2023-01-12T19:39:55.761Z,92.57
2023-01-12T19:42:39.556Z,92.41
2023-01-12T19:45:10.599Z,92.45
2023-01-12T19:47:41.494Z,92.58
2023-01-12T19:50:13.053Z,92.29
2023-01-12T19:52:43.681Z,92.43
2023-01-12T19:55:15.001Z,92.37
2023-01-12T19:57:44.699Z,92.63
2023-01-12T20:00:15.408Z,92.73
2023-01-12T20:02:46.488Z,92.40
2023-01-12T20:05:22.449Z,92.09
2023-01-12T20:07:53.103Z,92.26
2023-01-12T20:10:23.095Z,92.18
2023-01-12T20:12:52.677Z,92.79
2023-01-12T20:15:22.238Z,92.50
2023-01-12T20:17:52.723Z,92.76
2023-01-12T20:20:21.824Z,92.17
2023-01-12T20:22:51.805Z,92.56
2023-01-12T20:25:21.071Z,92.63
2023-01-12T20:27:50.447Z,92.58
2023-01-12T20:30:32.034Z,93.16
2023-01-12T20:33:07.751Z,92.52
2023-01-12T20:35:38.802Z,92.79
2023-01-12T20:38:13.519Z,92.93
2023-01-12T20:40:43.124Z,93.46
2023-01-12T20:43:11.919Z,92.85
2023-01-12T20:45:41.897Z,93.01
2023-01-12T20:48:15.291Z,92.90
2023-01-12T20:50:45.316Z,92.50
2023-01-12T20:53:15.733Z,92.86
2023-01-12T20:55:45.387Z,93.31
2023-01-12T20:58:14.022Z,92.97
2023-01-12T21:00:43.077Z,93.04
2023-01-12T21:03:13.482Z,92.88
2023-01-12T21:05:43.619Z,93.30
2023-01-12T21:08:12.563Z,92.77
2023-01-12T21:10:42.289Z,92.87
2023-01-12T21:13:11.165Z,93.29
2023-01-12T21:15:39.789Z,92.83
2023-01-12T21:18:08.879Z,93.14
2023-01-12T21:20:42.736Z,93.14
2023-01-12T21:23:12.125Z,93.56
2023-01-12T21:25:42.875Z,93.51
2023-01-12T21:28:11.739Z,93.18
2023-01-12T21:30:40.967Z,93.30
2023-01-12T21:33:10.656Z,93.04
2023-01-12T21:35:40.608Z,93.18
2023-01-12T21:38:09.406Z,93.38
2023-01-12T21:40:38.959Z,93.42
2023-01-12T21:43:10.462Z,93.41
2023-01-12T21:45:42.349Z,93.49
2023-01-12T21:48:12.911Z,93.41
2023-01-12T21:50:43.568Z,93.62
2023-01-12T21:53:16.548Z,93.59
2023-01-12T21:55:53.977Z,93.37
2023-01-12T21:58:23.057Z,93.50
2023-01-12T22:00:52.093Z,93.42
2023-01-12T22:03:24.152Z,93.47
2023-01-12T22:05:54.957Z,93.57
2023-01-12T22:08:23.802Z,93.48
2023-01-12T22:10:52.489Z,93.48
2023-01-12T22:13:21.282Z,93.77
2023-01-12T22:15:51.422Z,93.67
2023-01-12T22:18:21.254Z,93.95
2023-01-12T22:20:51.214Z,93.70
2023-01-12T22:23:21.380Z,93.86
2023-01-12T22:25:51.096Z,93.78
2023-01-12T22:28:19.921Z,93.66
2023-01-12T22:30:48.702Z,93.88
2023-01-12T22:33:17.449Z,93.96
2023-01-12T22:35:47.213Z,93.69
2023-01-12T22:38:15.551Z,93.54
2023-01-12T22:40:45.796Z,93.74
2023-01-12T22:43:24.638Z,93.71
2023-01-12T22:45:55.229Z,94.02
2023-01-12T22:48:24.034Z,94.09
2023-01-12T22:50:54.764Z,94.03
2023-01-12T22:53:25.388Z,94.20
2023-01-12T22:56:00.274Z,94.46
2023-01-12T22:58:29.086Z,94.00
2023-01-12T23:01:04.032Z,94.18
2023-01-12T23:03:33.530Z,94.36
2023-01-12T23:06:02.748Z,94.51
2023-01-12T23:08:31.871Z,94.20
2023-01-12T23:11:07.201Z,94.60
2023-01-12T23:13:36.649Z,94.63
2023-01-12T23:16:07.825Z,94.47
2023-01-12T23:18:39.162Z,94.24
2023-01-12T23:21:11.813Z,94.30
2023-01-12T23:23:40.725Z,94.22
2023-01-12T23:26:13.363Z,94.10
2023-01-12T23:28:47.659Z,94.27
2023-01-12T23:31:18.482Z,94.22
2023-01-12T23:33:47.561Z,94.49
2023-01-12T23:36:18.472Z,94.26
2023-01-12T23:38:47.525Z,94.49
2023-01-12T23:41:19.494Z,94.43
2023-01-12T23:43:50.239Z,94.24
2023-01-12T23:46:22.925Z,94.41
2023-01-12T23:48:52.580Z,94.60
2023-01-12T23:51:21.549Z,94.25
2023-01-12T23:53:53.254Z,94.28
2023-01-12T23:56:23.747Z,94.44
2023-01-12T23:58:52.560Z,94.33
